Thug — VHS6446 — position and weather

sailwx.info

Track history (hours):
 
Tides and Currents Weather Stations Pressure Air Temp Water Temp Dewpoint Dewpoint Depression Visibility Wind Speed Wind Dir Waves Ship Positions

Thug

Last reported at 2017-Oct-20 00:30 UTC. Time now 2017-Nov-24 09:40 UTC.
Position S 32°52' E 151°54'.
Warning: this ship's position is 35 days out of date.

Length 18 m.

Type: Pleasure craft. MMSI: 503400900.

Date/timePositionNaut miles runAvg speedWind from/ knotsBaromVisibWave heightAir tempDewpointWater temp
2017-Oct-20 00:30S 32°52' E 151°54'4 7.7
2017-Oct-20 00:01S 32°51' E 151°58'4 7.9
2017-Oct-19 23:31S 32°49' E 152°02'4 7.7
2017-Oct-19 23:01S 32°48' E 152°06'4 7.7
2017-Oct-19 22:31S 32°46' E 152°10'4 7.4
2017-Oct-19 22:00S 32°44' E 152°14'4 7.4
2017-Oct-19 21:31S 32°40' E 152°16'4 7.5
2017-Oct-19 21:00S 32°37' E 152°18'0 0.0
2017-Oct-19 09:36S 32°37' E 152°19'0 0.0
2017-Oct-19 09:31S 32°37' E 152°19'2 4.2
2017-Oct-19 08:58S 32°35' E 152°20'259 8.4
2017-Oct-18 02:15S 28°26' E 153°45'2 8.3
2017-Oct-18 02:00S 28°24' E 153°45'4 8.1
2017-Oct-18 01:30S 28°20' E 153°44'4 7.8
2017-Oct-18 01:00S 28°17' E 153°43'4 7.5
2017-Oct-18 00:30S 28°13' E 153°41'4 7.3
2017-Oct-18 00:00S 28°10' E 153°39'4 7.2
2017-Oct-17 23:30S 28°07' E 153°36'4 7.1
2017-Oct-17 23:00S 28°05' E 153°34'3 6.9
2017-Oct-17 22:30S 28°02' E 153°31'3 6.9
2017-Oct-17 22:00S 27°59' E 153°29'4 6.5
2017-Oct-17 21:24S 27°56' E 153°26'2 4.7
2017-Oct-17 20:58S 27°58' E 153°25'  
Track history (hours):
 
Tides and Currents Weather Stations Pressure Air Temp Water Temp Dewpoint Dewpoint Depression Visibility Wind Speed Wind Dir Waves Ship Positions

Thug

Last reported at 2017-Oct-20 00:30 UTC. Time now 2017-Nov-24 09:40 UTC.
Position S 32°52' E 151°54'.
Warning: this ship's position is 35 days out of date.

Length 18 m.

Type: Pleasure craft. MMSI: 503400900.

Date/timePositionNaut miles runAvg speedWind from/ knotsBaromVisibWave heightAir tempDewpointWater temp
2017-Oct-20 00:30S 32°52' E 151°54'4 7.7
2017-Oct-20 00:01S 32°51' E 151°58'4 7.9
2017-Oct-19 23:31S 32°49' E 152°02'4 7.7
2017-Oct-19 23:01S 32°48' E 152°06'4 7.7
2017-Oct-19 22:31S 32°46' E 152°10'4 7.4
2017-Oct-19 22:00S 32°44' E 152°14'4 7.4
2017-Oct-19 21:31S 32°40' E 152°16'4 7.5
2017-Oct-19 21:00S 32°37' E 152°18'0 0.0
2017-Oct-19 09:36S 32°37' E 152°19'0 0.0
2017-Oct-19 09:31S 32°37' E 152°19'2 4.2
2017-Oct-19 08:58S 32°35' E 152°20'259 8.4
2017-Oct-18 02:15S 28°26' E 153°45'2 8.3
2017-Oct-18 02:00S 28°24' E 153°45'4 8.1
2017-Oct-18 01:30S 28°20' E 153°44'4 7.8
2017-Oct-18 01:00S 28°17' E 153°43'4 7.5
2017-Oct-18 00:30S 28°13' E 153°41'4 7.3
2017-Oct-18 00:00S 28°10' E 153°39'4 7.2
2017-Oct-17 23:30S 28°07' E 153°36'4 7.1
2017-Oct-17 23:00S 28°05' E 153°34'3 6.9
2017-Oct-17 22:30S 28°02' E 153°31'3 6.9
2017-Oct-17 22:00S 27°59' E 153°29'4 6.5
2017-Oct-17 21:24S 27°56' E 153°26'2 4.7
2017-Oct-17 20:58S 27°58' E 153°25'  

Dump ship's entire track history